Time;durP1;ratioP1;P1;durP2;ratioP2;P2;SDS_P1;SDS_P2;PMS_P1;PMS_P2;Temp;Humidity;BMP_temperature;BMP_pressure;BME280_temperature;BME280_humidity;BME280_pressure;Samples;Min_cycle;Max_cycle;Signal;HPM_P1;HPM_P2
2022/06/09 00:00:10;;;;;;;3.22;2.00;;;;;;;22.64;50.74;100445.47;5010638;28;20502;-57
2022/06/09 00:02:36;;;;;;;3.17;2.10;;;;;;;22.66;50.38;100444.56;5010403;28;20398;-58
2022/06/09 00:05:03;;;;;;;3.38;2.08;;;;;;;22.57;50.65;100434.09;4994442;28;20894;-56
2022/06/09 00:07:30;;;;;;;3.90;2.10;;;;;;;22.67;50.68;100454.19;5010283;28;20394;-57
2022/06/09 00:09:59;;;;;;;2.42;1.80;;;;;;;22.66;50.69;100444.56;5010484;28;20486;-58
2022/06/09 00:12:25;;;;;;;2.67;1.95;;;;;;;22.67;50.63;100446.31;5029467;28;20381;-59
2022/06/09 00:14:50;;;;;;;3.75;2.10;;;;;;;22.67;50.39;100446.31;5030239;28;20382;-56
2022/06/09 00:17:16;;;;;;;3.60;2.30;;;;;;;22.66;50.62;100452.44;5030440;28;20848;-57
2022/06/09 00:19:42;;;;;;;4.70;2.20;;;;;;;22.67;50.81;100440.19;5013479;28;20386;-57
2022/06/09 00:22:09;;;;;;;3.20;2.00;;;;;;;22.67;49.78;100450.69;5030241;28;20746;-58
2022/06/09 00:24:35;;;;;;;4.18;2.13;;;;;;;22.68;50.46;100453.31;5029760;28;20390;-58
2022/06/09 00:27:00;;;;;;;2.90;1.90;;;;;;;22.68;50.59;100458.56;5031594;28;20389;-57
2022/06/09 00:29:25;;;;;;;3.20;1.90;;;;;;;22.68;50.56;100453.31;5029953;28;20397;-59
2022/06/09 00:31:50;;;;;;;5.83;2.20;;;;;;;22.69;50.56;100447.16;5029806;28;20461;-59
2022/06/09 00:34:16;;;;;;;6.17;2.50;;;;;;;22.68;50.05;100448.06;5030067;28;20473;-57
2022/06/09 00:36:41;;;;;;;4.32;2.13;;;;;;;22.69;50.90;100447.16;5013289;28;20396;-57
2022/06/09 00:39:09;;;;;;;4.47;2.10;;;;;;;22.66;50.13;100447.19;5013381;28;20472;-53
2022/06/09 00:41:40;;;;;;;3.17;2.10;;;;;;;22.69;50.71;100449.78;5030152;28;20397;-57
2022/06/09 00:44:22;;;;;;;4.93;2.10;;;;;;;22.68;50.51;100448.06;5013293;28;20889;-58
2022/06/09 00:46:53;;;;;;;3.55;2.10;;;;;;;22.68;50.37;100448.06;5033431;28;20381;-58
2022/06/09 00:49:23;;;;;;;2.80;1.90;;;;;;;22.66;50.75;100434.06;5033971;28;20385;-55
2022/06/09 00:51:56;;;;;;;2.95;2.10;;;;;;;22.58;50.43;100431.47;5033850;28;20435;-57
2022/06/09 00:54:48;;;;;;;5.15;2.20;;;;;;;22.68;50.36;100440.19;5033696;28;20381;-58
2022/06/09 00:57:28;;;;;;;3.70;2.00;;;;;;;22.68;50.42;100442.81;5012352;28;20456;-56
2022/06/09 00:59:56;;;;;;;7.60;2.40;;;;;;;22.66;50.34;100444.56;5033353;28;20412;-56
2022/06/09 01:02:22;;;;;;;2.88;1.95;;;;;;;22.69;50.74;100457.66;5033164;28;20839;-58
2022/06/09 01:04:50;;;;;;;3.53;1.90;;;;;;;22.68;50.39;100458.56;5017091;28;20399;-56
2022/06/09 01:07:18;;;;;;;7.80;2.00;;;;;;;22.70;50.82;100467.28;5033516;28;20397;-58
2022/06/09 01:09:44;;;;;;;3.00;1.80;;;;;;;22.69;50.48;100460.28;5033230;28;20435;-57
2022/06/09 01:12:21;;;;;;;2.28;1.73;;;;;;;22.69;50.17;100448.94;5034607;28;20894;-56
2022/06/09 01:14:47;;;;;;;3.95;1.80;;;;;;;22.52;50.31;100414.88;5033499;28;20377;-56
2022/06/09 01:17:20;;;;;;;3.30;2.10;;;;;;;22.70;50.49;100443.66;5016878;28;20511;-55
2022/06/09 01:20:04;;;;;;;3.00;1.90;;;;;;;22.69;50.05;100438.44;5016790;28;20773;-58
2022/06/09 01:22:51;;;;;;;3.67;1.88;;;;;;;22.70;50.17;100445.44;5034463;28;20427;-58
2022/06/09 01:25:38;;;;;;;5.37;2.20;;;;;;;22.70;50.19;100450.69;5034248;28;20412;-58
2022/06/09 01:28:31;;;;;;;2.20;1.80;;;;;;;22.70;50.57;100443.66;5034095;28;20378;-55
2022/06/09 01:31:01;;;;;;;3.38;1.88;;;;;;;22.70;50.11;100441.03;5032962;28;20400;-58
2022/06/09 01:33:35;;;;;;;2.60;1.80;;;;;;;22.70;50.26;100451.53;5032644;28;20389;-58
2022/06/09 01:36:33;;;;;;;3.83;1.83;;;;;;;22.70;50.17;100446.28;5032801;28;20570;-54
2022/06/09 01:39:02;;;;;;;4.45;2.28;;;;;;;22.69;50.17;100443.69;5013014;28;20385;-58
2022/06/09 01:41:27;;;;;;;3.55;2.10;;;;;;;22.69;50.63;100439.28;5033447;28;20395;-59
2022/06/09 01:43:54;;;;;;;3.57;1.93;;;;;;;22.70;50.26;100446.28;5032791;28;20390;-60
2022/06/09 01:46:28;;;;;;;3.40;1.90;;;;;;;22.68;50.21;100437.56;5015872;28;20381;-60
2022/06/09 01:48:57;;;;;;;2.75;1.90;;;;;;;22.70;50.50;100446.28;5032055;28;20399;-59
2022/06/09 01:51:24;;;;;;;4.72;1.98;;;;;;;22.71;50.27;100440.16;5030933;28;20723;-58
2022/06/09 01:53:59;;;;;;;4.85;2.20;;;;;;;22.71;50.48;100442.78;5012510;28;20369;-58
2022/06/09 01:56:32;;;;;;;11.52;3.17;;;;;;;22.77;51.27;100431.41;5015832;28;20386;-51
2022/06/09 01:59:05;;;;;;;5.73;1.90;;;;;;;22.75;50.54;100427.91;5015731;28;20377;-53
2022/06/09 02:01:40;;;;;;;5.18;2.13;;;;;;;22.72;50.63;100428.78;5032321;28;20366;-55
2022/06/09 02:04:17;;;;;;;4.05;2.03;;;;;;;22.72;50.35;100423.53;5016144;28;20381;-56
2022/06/09 02:06:45;;;;;;;6.07;2.20;;;;;;;22.72;50.17;100438.44;5015787;28;20385;-60
2022/06/09 02:09:16;;;;;;;4.53;2.10;;;;;;;22.72;50.69;100439.28;5032298;28;20398;-56
2022/06/09 02:11:50;;;;;;;3.20;1.75;;;;;;;22.72;50.67;100434.03;5032158;28;20382;-58
2022/06/09 02:14:19;;;;;;;4.20;1.97;;;;;;;22.72;50.28;100434.03;5032066;28;20434;-56
2022/06/09 02:16:52;;;;;;;4.47;1.98;;;;;;;22.71;50.92;100429.66;5032099;28;20464;-56
2022/06/09 02:19:17;;;;;;;2.92;1.83;;;;;;;22.70;50.77;100435.78;5031807;28;20389;-53
2022/06/09 02:21:43;;;;;;;3.65;1.88;;;;;;;22.70;50.63;100441.03;5033482;28;20386;-57
2022/06/09 02:24:08;;;;;;;2.93;1.83;;;;;;;22.72;50.69;100444.53;5015589;28;20728;-52
2022/06/09 02:26:34;;;;;;;4.07;2.10;;;;;;;22.70;50.82;100446.28;5015566;28;20468;-57
2022/06/09 02:29:02;;;;;;;2.72;1.70;;;;;;;22.70;50.35;100441.03;5032139;28;20473;-51
2022/06/09 02:31:31;;;;;;;3.40;1.73;;;;;;;22.67;50.54;100440.19;5015723;28;20377;-48
2022/06/09 02:33:56;;;;;;;2.30;1.70;;;;;;;22.65;50.41;100431.47;5031810;28;20397;-49
2022/06/09 02:36:22;;;;;;;2.40;1.70;;;;;;;22.71;50.19;100437.53;5015109;28;20377;-50
2022/06/09 02:38:48;;;;;;;3.83;1.80;;;;;;;22.67;50.27;100440.19;5032000;28;20464;-53
2022/06/09 02:41:14;;;;;;;3.00;1.80;;;;;;;22.71;50.69;100437.53;5031790;28;20383;-50
2022/06/09 02:43:40;;;;;;;2.90;1.80;;;;;;;22.68;50.51;100448.06;5031976;28;20378;-50
2022/06/09 02:46:06;;;;;;;2.75;1.73;;;;;;;22.68;50.56;100448.06;5031956;28;20421;-51
2022/06/09 02:48:33;;;;;;;3.20;1.90;;;;;;;22.70;50.48;100456.78;5032961;28;20393;-54
2022/06/09 02:51:14;;;;;;;2.55;1.70;;;;;;;22.72;50.31;100452.41;5031697;28;20386;-53
2022/06/09 02:53:39;;;;;;;2.53;1.90;;;;;;;22.70;50.31;100450.69;5032599;28;20854;-55
2022/06/09 02:56:07;;;;;;;3.40;1.90;;;;;;;22.70;50.57;100456.78;5032481;28;20388;-57
2022/06/09 02:58:33;;;;;;;4.20;1.90;;;;;;;22.71;50.63;100455.91;5032193;28;20476;-55
2022/06/09 03:00:58;;;;;;;2.37;1.80;;;;;;;22.74;50.47;100458.53;5031380;28;20457;-57
2022/06/09 03:03:26;;;;;;;2.30;1.80;;;;;;;22.73;50.61;100464.66;5014747;28;20457;-54
2022/06/09 03:05:54;;;;;;;3.13;1.95;;;;;;;22.71;50.61;100461.16;5031053;28;20917;-55
2022/06/09 03:08:19;;;;;;;3.67;1.90;;;;;;;22.64;50.22;100451.56;5030457;28;20447;-55
2022/06/09 03:10:48;;;;;;;2.80;1.90;;;;;;;22.72;50.81;100455.03;5030079;28;20393;-57
2022/06/09 03:13:13;;;;;;;3.13;1.70;;;;;;;22.72;50.44;100460.28;5031229;28;20616;-51
2022/06/09 03:15:38;;;;;;;3.20;2.03;;;;;;;22.72;50.18;100455.03;5014709;28;20377;-56
2022/06/09 03:18:04;;;;;;;2.40;1.70;;;;;;;22.71;50.60;100461.16;5030977;28;20384;-54
2022/06/09 03:20:31;;;;;;;2.50;1.80;;;;;;;22.73;50.43;100462.03;5032278;28;20456;-53
2022/06/09 03:22:59;;;;;;;2.97;1.80;;;;;;;22.73;50.80;100471.69;5030934;28;20370;-58
2022/06/09 03:25:24;;;;;;;3.40;1.77;;;;;;;22.71;50.54;100469.03;5030763;28;20439;-57
2022/06/09 03:27:50;;;;;;;2.30;1.90;;;;;;;22.70;50.51;100467.28;5030893;28;20381;-54
2022/06/09 03:30:16;;;;;;;2.97;1.80;;;;;;;22.73;50.63;100475.16;5030280;28;20385;-54
2022/06/09 03:32:44;;;;;;;2.72;1.90;;;;;;;22.71;50.41;100474.28;5013991;28;20377;-57
2022/06/09 03:35:10;;;;;;;3.17;2.08;;;;;;;22.70;50.62;100472.53;5030428;28;20385;-56
2022/06/09 03:37:38;;;;;;;2.00;1.80;;;;;;;22.72;50.84;100481.28;5030382;28;20385;-56
2022/06/09 03:40:08;;;;;;;2.65;1.70;;;;;;;22.73;50.87;100483.03;5030517;28;20377;-56
2022/06/09 03:42:34;;;;;;;1.85;1.50;;;;;;;22.74;50.22;100487.41;5014265;28;20417;-57
2022/06/09 03:45:02;;;;;;;4.00;1.63;;;;;;;22.70;50.45;100483.03;5013775;28;20928;-53
2022/06/09 03:47:27;;;;;;;2.17;1.73;;;;;;;22.73;50.46;100488.28;5029589;28;20412;-58
2022/06/09 03:49:55;;;;;;;2.47;1.70;;;;;;;22.74;50.83;100484.78;5030317;28;20504;-57
2022/06/09 03:52:21;;;;;;;2.22;1.70;;;;;;;22.72;50.60;100486.53;5029389;28;20904;-57
2022/06/09 03:54:46;;;;;;;2.77;1.70;;;;;;;22.71;50.52;100484.78;5010658;28;20373;-58
2022/06/09 03:57:14;;;;;;;1.93;1.60;;;;;;;22.73;50.58;100483.03;5030033;28;20471;-57
2022/06/09 03:59:40;;;;;;;2.40;1.85;;;;;;;22.72;50.78;100491.78;5030149;28;20843;-57
2022/06/09 04:02:09;;;;;;;2.67;1.77;;;;;;;22.73;50.34;100488.28;4882558;23;20438;-59
2022/06/09 04:04:37;;;;;;;2.30;1.90;;;;;;;22.70;51.05;100488.28;4993995;28;20421;-59
2022/06/09 04:07:08;;;;;;;2.75;1.65;;;;;;;22.74;50.93;100489.16;4993347;28;20414;-58
2022/06/09 04:09:37;;;;;;;2.80;1.60;;;;;;;22.74;50.91;100494.41;4993739;28;20398;-59
2022/06/09 04:12:06;;;;;;;2.13;1.63;;;;;;;22.75;50.79;100499.66;4994350;28;20840;-61
2022/06/09 04:14:37;;;;;;;2.45;1.60;;;;;;;22.74;50.97;100505.78;5010430;28;20871;-61
2022/06/09 04:17:07;;;;;;;2.88;1.60;;;;;;;22.73;50.47;100493.53;4994009;28;20383;-61
2022/06/09 04:19:36;;;;;;;1.98;1.63;;;;;;;22.74;50.50;100497.91;4993805;28;20861;-61
2022/06/09 04:22:06;;;;;;;2.45;1.80;;;;;;;22.74;50.35;100495.28;4993698;28;20391;-61
2022/06/09 04:24:38;;;;;;;2.50;1.65;;;;;;;22.74;50.54;100495.28;5010515;28;20383;-61
2022/06/09 04:27:07;;;;;;;2.35;1.58;;;;;;;22.74;50.47;100499.66;5010288;28;20391;-61
2022/06/09 04:29:44;;;;;;;2.08;1.80;;;;;;;22.74;50.66;100508.41;5010233;28;20405;-61
2022/06/09 04:32:11;;;;;;;2.17;1.70;;;;;;;22.74;50.40;100505.78;4993968;28;20391;-61
2022/06/09 04:34:46;;;;;;;2.50;1.98;;;;;;;22.74;50.27;100505.78;4993475;28;20379;-63
2022/06/09 04:37:17;;;;;;;1.92;1.60;;;;;;;22.75;50.15;100502.28;4994071;28;20395;-60
2022/06/09 04:39:49;;;;;;;2.33;1.70;;;;;;;22.74;50.54;100505.78;5010332;28;20387;-60
2022/06/09 04:42:19;;;;;;;3.23;1.50;;;;;;;22.75;50.48;100512.78;4994407;28;20379;-61
2022/06/09 04:44:46;;;;;;;2.47;1.70;;;;;;;22.75;50.19;100507.53;5010090;28;20403;-61
2022/06/09 04:47:14;;;;;;;2.42;1.77;;;;;;;22.75;50.46;100512.78;5010124;28;20426;-61
2022/06/09 04:49:46;;;;;;;2.90;1.60;;;;;;;22.75;50.34;100518.03;5010160;28;20399;-65
2022/06/09 04:52:22;;;;;;;2.03;1.52;;;;;;;22.75;50.69;100507.53;5026311;28;20387;-61
2022/06/09 04:54:51;;;;;;;3.00;1.73;;;;;;;22.72;50.69;100507.53;4994604;28;20502;-61
2022/06/09 04:57:19;;;;;;;1.73;1.50;;;;;;;22.74;50.72;100524.16;5009519;28;20401;-61
2022/06/09 04:59:54;;;;;;;2.70;1.90;;;;;;;22.74;50.30;100526.78;5025470;28;20425;-61
2022/06/09 05:02:26;;;;;;;1.70;1.50;;;;;;;22.75;50.11;100523.28;4993257;28;20914;-61
2022/06/09 05:04:54;;;;;;;1.92;1.60;;;;;;;22.71;50.21;100521.53;5025921;28;20387;-61
2022/06/09 05:07:19;;;;;;;2.33;1.70;;;;;;;22.54;50.42;100497.09;5025977;28;20848;-61
2022/06/09 05:09:45;;;;;;;1.60;1.40;;;;;;;22.75;49.98;100539.03;5026150;28;20413;-62
2022/06/09 05:12:10;;;;;;;1.53;1.40;;;;;;;22.73;50.36;100529.44;5026176;28;20378;-63
2022/06/09 05:14:36;;;;;;;9.67;2.20;;;;;;;22.75;49.73;100539.03;4993237;28;20386;-62
2022/06/09 05:17:07;;;;;;;3.08;1.75;;;;;;;22.79;50.38;100539.00;5025669;28;20383;-62
2022/06/09 05:19:38;;;;;;;2.50;1.60;;;;;;;22.76;50.17;100546.03;5024828;28;20470;-63
2022/06/09 05:22:03;;;;;;;2.17;1.67;;;;;;;22.76;50.41;100543.41;5008630;28;20801;-60
2022/06/09 05:24:29;;;;;;;3.15;1.70;;;;;;;22.77;50.31;100547.78;5009321;28;20475;-60
2022/06/09 05:26:54;;;;;;;6.07;2.10;;;;;;;22.76;50.47;100540.78;5009224;28;20387;-61
2022/06/09 05:29:19;;;;;;;2.80;1.70;;;;;;;22.77;50.03;100547.78;5009390;28;20400;-65
2022/06/09 05:31:45;;;;;;;5.93;2.20;;;;;;;22.80;50.90;100553.91;5009238;28;20394;-66
2022/06/09 05:34:10;;;;;;;8.07;2.30;;;;;;;22.79;50.90;100554.78;5012515;28;20709;-65
2022/06/09 05:36:37;;;;;;;6.47;2.40;;;;;;;22.80;50.11;100556.53;5014039;28;20474;-65
2022/06/09 05:47:16;;;;;;;6.93;2.83;;;;;;;22.85;50.30;100565.28;5026021;28;20379;-65
2022/06/09 05:49:43;;;;;;;5.20;2.47;;;;;;;22.85;49.87;100565.28;5012322;28;20398;-64
2022/06/09 05:52:14;;;;;;;8.95;2.90;;;;;;;22.86;50.43;100574.91;4994470;28;20390;-70
2022/06/09 05:54:45;;;;;;;6.65;3.10;;;;;;;22.87;50.06;100584.53;4994115;28;20518;-68
2022/06/09 05:57:13;;;;;;;7.10;3.00;;;;;;;22.86;50.13;100588.03;5012891;28;20378;-68
2022/06/09 05:59:39;;;;;;;13.93;4.00;;;;;;;22.86;50.49;100588.03;4996031;28;20391;-61
2022/06/09 06:02:05;;;;;;;16.63;5.60;;;;;;;22.87;50.33;100595.03;5012215;28;20437;-61
2022/06/09 06:04:31;;;;;;;18.23;6.15;;;;;;;22.86;50.74;100603.78;4996317;28;20379;-63
2022/06/09 06:06:56;;;;;;;18.57;6.07;;;;;;;22.87;50.35;100611.66;4996268;28;20744;-69
2022/06/09 06:09:27;;;;;;;16.07;5.90;;;;;;;22.83;50.72;100612.53;5012371;28;20391;-66
2022/06/09 06:11:53;;;;;;;11.10;4.55;;;;;;;22.87;50.09;100616.03;5011462;28;20967;-66
2022/06/09 06:14:19;;;;;;;12.35;5.35;;;;;;;22.88;50.02;100609.91;5012333;28;20475;-66
2022/06/09 06:16:45;;;;;;;12.75;5.00;;;;;;;22.88;50.45;100623.03;4985818;28;20475;-66
2022/06/09 06:19:14;;;;;;;9.83;4.60;;;;;;;22.86;50.11;100622.19;5007220;28;20475;-66
2022/06/09 06:21:41;;;;;;;10.80;4.63;;;;;;;22.86;50.14;100630.91;4992327;28;20414;-66
2022/06/09 06:24:14;;;;;;;11.40;4.50;;;;;;;22.86;49.80;100635.31;5009388;28;20395;-65
2022/06/09 06:26:40;;;;;;;8.37;4.33;;;;;;;22.84;49.59;100637.06;4992723;28;20842;-66
2022/06/09 06:29:08;;;;;;;11.63;4.70;;;;;;;22.71;49.86;100616.03;5014321;28;20513;-66
2022/06/09 06:31:34;;;;;;;11.87;4.70;;;;;;;22.71;49.42;100615.19;4995538;28;20482;-66
2022/06/09 06:34:00;;;;;;;8.07;3.93;;;;;;;22.83;49.54;100645.81;4995271;28;20388;-66
2022/06/09 06:36:25;;;;;;;10.73;4.40;;;;;;;22.84;50.06;100647.56;5027967;28;20394;-66
2022/06/09 06:38:51;;;;;;;7.70;3.83;;;;;;;22.72;49.81;100643.19;5012736;28;20869;-66
2022/06/09 06:41:17;;;;;;;8.50;3.97;;;;;;;22.82;49.77;100646.69;4997440;28;20876;-66
2022/06/09 06:43:44;;;;;;;9.20;3.78;;;;;;;22.86;49.66;100666.81;5024390;28;20384;-66
2022/06/09 06:46:09;;;;;;;8.27;3.85;;;;;;;22.87;50.06;100660.69;5009442;28;20856;-66
2022/06/09 06:48:35;;;;;;;11.32;3.53;;;;;;;22.87;49.85;100668.56;5025533;28;20418;-66
2022/06/09 06:51:01;;;;;;;7.32;3.38;;;;;;;22.87;49.66;100673.81;4995068;28;20408;-66
2022/06/09 06:53:26;;;;;;;7.15;3.55;;;;;;;22.88;49.73;100675.56;5011395;28;20391;-66
2022/06/09 06:55:52;;;;;;;5.35;2.95;;;;;;;22.86;49.48;100674.69;5011435;28;20402;-66
2022/06/09 06:58:17;;;;;;;8.23;4.07;;;;;;;22.88;49.32;100686.06;4994654;28;20456;-66
2022/06/09 07:00:42;;;;;;;7.50;3.40;;;;;;;22.88;49.81;100686.06;5011351;28;20410;-66
2022/06/09 07:03:09;;;;;;;7.25;3.17;;;;;;;22.88;49.70;100693.94;5010987;28;20483;-66
2022/06/09 07:05:36;;;;;;;7.50;2.90;;;;;;;22.88;49.25;100696.56;5011208;28;20398;-66
2022/06/09 07:08:03;;;;;;;6.30;3.10;;;;;;;22.74;49.55;100673.78;5012498;28;20398;-66
2022/06/09 07:10:32;;;;;;;7.75;3.30;;;;;;;22.89;49.34;100708.81;5027616;28;20460;-64
2022/06/09 07:12:59;;;;;;;6.00;2.75;;;;;;;22.88;49.53;100707.06;4993934;28;20391;-65
2022/06/09 07:15:24;;;;;;;5.53;2.78;;;;;;;22.86;49.72;100708.81;5011703;28;20413;-61
2022/06/09 07:17:50;;;;;;;4.67;2.50;;;;;;;22.88;49.29;100712.31;5001481;28;20383;-63
2022/06/09 07:20:16;;;;;;;5.18;3.13;;;;;;;22.88;49.63;100712.31;5026740;28;20387;-62
2022/06/09 07:22:42;;;;;;;6.10;2.53;;;;;;;22.87;49.35;100711.44;5011908;28;20377;-65
2022/06/09 07:25:08;;;;;;;6.07;2.92;;;;;;;22.58;49.39;100672.06;5035575;28;20405;-66
2022/06/09 07:27:34;;;;;;;8.00;2.70;;;;;;;22.87;49.14;100727.19;5001318;28;20771;-63
2022/06/09 07:30:02;;;;;;;6.03;2.80;;;;;;;22.87;49.65;100726.34;4994338;28;20429;-62
2022/06/09 07:32:30;;;;;;;4.28;2.38;;;;;;;22.83;49.32;100714.09;5013513;28;20388;-62
2022/06/09 07:34:55;;;;;;;5.15;2.75;;;;;;;22.87;49.75;100732.44;5029104;28;20468;-63
2022/06/09 07:37:23;;;;;;;5.80;3.00;;;;;;;22.88;49.30;100728.09;5012213;28;20545;-62
2022/06/09 07:39:49;;;;;;;4.95;2.80;;;;;;;22.88;49.20;100733.34;5009013;28;20760;-63
2022/06/09 07:42:15;;;;;;;4.73;2.40;;;;;;;22.86;49.52;100732.47;5014852;28;20439;-62
2022/06/09 07:44:40;;;;;;;6.80;2.92;;;;;;;22.88;49.48;100736.81;5001418;28;20466;-62
2022/06/09 07:47:06;;;;;;;7.10;3.10;;;;;;;22.78;49.03;100721.94;5008224;28;20401;-62
2022/06/09 07:49:32;;;;;;;6.60;2.70;;;;;;;22.86;49.22;100741.19;5007285;28;20932;-61
2022/06/09 07:51:57;;;;;;;7.45;2.60;;;;;;;22.86;49.45;100746.44;5024361;28;20383;-62
2022/06/09 07:54:25;;;;;;;12.97;3.57;;;;;;;22.86;49.73;100741.19;5013361;28;20459;-63
2022/06/09 07:56:51;;;;;;;9.10;3.20;;;;;;;22.90;49.63;100748.19;5007917;28;20386;-63
2022/06/09 07:59:16;;;;;;;9.17;3.03;;;;;;;22.89;48.95;100751.69;5014453;28;20866;-63
2022/06/09 08:04:22;;;;;;;7.05;2.70;;;;;;;22.91;49.31;100756.97;5018537;22;20999;-63
2022/06/09 08:07:09;;;;;;;6.45;2.63;;;;;;;22.90;49.51;100755.22;4992700;28;20395;-63
2022/06/09 08:09:57;;;;;;;8.13;3.00;;;;;;;22.92;49.33;100766.59;5010464;28;20467;-63
2022/06/09 08:12:45;;;;;;;7.55;2.90;;;;;;;22.91;48.88;100775.34;4997394;28;20486;-63
2022/06/09 08:15:27;;;;;;;4.88;2.70;;;;;;;22.92;48.98;100777.09;5009765;28;20430;-65
2022/06/09 08:18:01;;;;;;;6.00;2.60;;;;;;;22.93;49.24;100784.09;4994884;28;20892;-64
2022/06/09 08:20:40;;;;;;;7.03;3.00;;;;;;;22.90;49.09;100790.22;4997036;28;20395;-63
2022/06/09 08:23:24;;;;;;;7.00;3.08;;;;;;;22.90;49.13;100784.09;4998959;28;20461;-63
2022/06/09 08:26:05;;;;;;;4.85;2.70;;;;;;;22.92;49.36;100787.59;5008311;28;20398;-63
2022/06/09 08:28:56;;;;;;;7.00;2.67;;;;;;;22.93;48.96;100794.59;4993632;28;20768;-63
2022/06/09 08:31:41;;;;;;;6.07;3.22;;;;;;;22.93;49.67;100789.34;5009842;28;20391;-63
2022/06/09 08:34:13;;;;;;;8.65;3.10;;;;;;;22.94;49.86;100795.47;5004078;28;20395;-64
2022/06/09 08:36:40;;;;;;;4.88;2.97;;;;;;;22.89;48.96;100798.09;4992515;28;20470;-64
2022/06/09 08:39:09;;;;;;;6.88;3.15;;;;;;;22.93;49.53;100802.47;5008007;28;20386;-65
2022/06/09 08:42:18;;;;;;;4.93;2.80;;;;;;;22.91;49.26;100812.13;4993602;28;20739;-63
2022/06/09 08:44:58;;;;;;;4.05;3.00;;;;;;;22.94;48.82;100821.72;4988609;28;20396;-63
2022/06/09 08:47:38;;;;;;;7.05;3.05;;;;;;;22.94;48.65;100822.63;5023476;28;20392;-63
2022/06/09 08:50:31;;;;;;;5.38;3.00;;;;;;;22.94;48.69;100820.00;4993490;28;20493;-63
2022/06/09 08:53:01;;;;;;;6.90;3.10;;;;;;;22.93;49.06;100820.88;5025871;28;20514;-63
2022/06/09 08:55:50;;;;;;;6.30;3.17;;;;;;;22.94;49.17;100832.22;5023325;28;20476;-63
2022/06/09 08:58:52;;;;;;;6.13;3.03;;;;;;;22.95;48.97;100844.50;4986408;28;20465;-64
2022/06/09 09:01:32;;;;;;;5.53;3.03;;;;;;;22.94;48.97;100838.38;4991088;28;20378;-63
2022/06/09 09:04:20;;;;;;;5.20;3.25;;;;;;;22.94;48.84;100848.88;5010914;28;20543;-63
2022/06/09 09:07:20;;;;;;;4.78;2.80;;;;;;;22.96;49.62;100847.13;5004072;28;20392;-63
2022/06/09 09:09:47;;;;;;;4.68;3.00;;;;;;;22.96;48.84;100852.38;4968463;28;20467;-63
2022/06/09 09:12:21;;;;;;;6.05;3.03;;;;;;;22.97;48.68;100854.13;4985803;28;20438;-63
2022/06/09 09:14:51;;;;;;;4.40;2.80;;;;;;;22.96;49.03;100860.25;5014336;28;20445;-63
2022/06/09 09:17:34;;;;;;;5.07;2.60;;;;;;;22.96;49.15;100857.63;5012975;28;20814;-63
2022/06/09 09:19:59;;;;;;;5.20;2.88;;;;;;;22.95;49.28;100866.41;4996702;28;20415;-63
2022/06/09 09:22:31;;;;;;;5.13;2.73;;;;;;;22.95;48.85;100876.91;5026600;28;20383;-63
2022/06/09 09:24:59;;;;;;;5.97;3.10;;;;;;;22.96;49.22;100870.78;5003955;28;20447;-63
2022/06/09 09:27:33;;;;;;;5.88;2.83;;;;;;;22.95;49.03;100871.66;5014210;28;20383;-63
2022/06/09 09:30:40;;;;;;;4.80;2.95;;;;;;;22.97;48.60;100864.66;5029071;28;20395;-63
2022/06/09 09:33:14;;;;;;;7.40;3.08;;;;;;;22.98;49.39;100876.91;5009503;28;20385;-63
2022/06/09 09:35:42;;;;;;;6.10;3.28;;;;;;;22.86;48.81;100866.38;5009330;28;20385;-63
2022/06/09 09:38:09;;;;;;;5.13;3.30;;;;;;;22.97;49.32;100880.41;5019459;28;20399;-63
2022/06/09 09:40:37;;;;;;;5.50;3.33;;;;;;;23.00;49.39;100890.91;4993468;28;20462;-60
2022/06/09 09:43:09;;;;;;;5.43;3.35;;;;;;;23.01;49.22;100892.66;5008872;28;20383;-60
2022/06/09 09:45:38;;;;;;;5.50;3.30;;;;;;;23.00;49.45;100888.28;5008702;28;20880;-60
2022/06/09 09:48:24;;;;;;;5.72;3.10;;;;;;;23.03;49.26;100898.78;4996127;28;20523;-60
2022/06/09 09:50:51;;;;;;;5.28;2.88;;;;;;;23.02;49.33;100894.41;5009587;28;20388;-60
2022/06/09 09:53:19;;;;;;;4.80;3.10;;;;;;;22.89;48.92;100877.75;5025364;28;20885;-60
2022/06/09 09:56:17;;;;;;;5.40;3.38;;;;;;;23.02;48.69;100909.28;4993630;28;20718;-60
2022/06/09 09:58:48;;;;;;;5.53;3.03;;;;;;;22.89;49.25;100893.50;5009425;28;20394;-60
2022/06/09 10:08:35;;;;;;;5.63;3.10;;;;;;;23.02;49.60;100915.44;5011785;28;20848;-60
2022/06/09 10:10:10;;;;;;;5.13;3.58;;;;;;;23.03;49.58;100932.06;5012701;28;20410;-53
2022/06/09 10:12:41;;;;;;;5.10;3.03;;;;;;;23.05;50.14;100920.69;5012460;28;20390;-50
2022/06/09 10:15:09;;;;;;;5.43;3.25;;;;;;;23.07;49.40;100927.69;5013667;28;20469;-46
2022/06/09 10:17:37;;;;;;;6.37;3.53;;;;;;;23.07;50.04;100922.44;5011237;28;20779;-45
2022/06/09 10:20:33;;;;;;;4.85;3.10;;;;;;;23.08;50.54;100918.94;5011384;28;20371;-51
2022/06/09 10:23:10;;;;;;;4.63;3.00;;;;;;;23.08;50.40;100929.44;5012447;28;20379;-51
2022/06/09 10:25:38;;;;;;;4.45;3.08;;;;;;;23.07;50.05;100932.94;5012867;28;20387;-51
2022/06/09 10:28:15;;;;;;;4.60;3.00;;;;;;;23.07;50.04;100930.31;5005224;28;20772;-53
2022/06/09 10:30:49;;;;;;;6.20;3.03;;;;;;;23.07;50.39;100948.72;4995567;28;20764;-56
2022/06/09 10:33:33;;;;;;;5.28;3.08;;;;;;;23.08;50.15;100939.97;5012234;28;20486;-51
2022/06/09 10:36:02;;;;;;;5.13;2.85;;;;;;;23.00;50.40;100927.69;5011974;28;20870;-53
2022/06/09 10:38:35;;;;;;;4.28;2.88;;;;;;;23.08;50.35;100950.47;4995943;28;20379;-53
2022/06/09 10:41:10;;;;;;;6.80;3.10;;;;;;;23.09;50.10;100957.47;5009425;28;20399;-59
2022/06/09 10:44:02;;;;;;;5.53;2.90;;;;;;;23.10;50.07;100969.72;5009171;28;20392;-62
2022/06/09 10:46:29;;;;;;;5.45;2.90;;;;;;;23.08;50.71;100960.97;5009133;28;20387;-62
2022/06/09 10:55:45;;;;;;;5.20;2.97;;;;;;;23.10;49.75;100975.00;5011063;28;20898;-61
2022/06/09 10:58:35;;;;;;;4.13;2.90;;;;;;;23.10;49.84;100978.47;4989296;28;20878;-58
2022/06/09 11:01:03;;;;;;;5.35;3.05;;;;;;;23.03;50.13;100974.97;5004795;28;20478;-59
2022/06/09 11:03:33;;;;;;;6.72;3.28;;;;;;;23.09;49.79;100973.22;4978364;28;20943;-58
2022/06/09 11:06:40;;;;;;;4.80;2.92;;;;;;;23.10;50.12;100980.25;4991083;28;20433;-58
2022/06/09 11:09:20;;;;;;;5.47;2.88;;;;;;;23.05;49.77;100978.47;4985176;28;20887;-58
2022/06/09 11:12:16;;;;;;;6.05;2.70;;;;;;;23.09;50.47;100986.38;4997102;28;20373;-59
2022/06/09 11:14:48;;;;;;;6.43;2.80;;;;;;;23.13;49.91;100991.63;5011129;28;20371;-59
2022/06/09 11:17:24;;;;;;;4.78;2.75;;;;;;;23.13;49.70;100990.75;5003491;28;20903;-60
2022/06/09 11:20:32;;;;;;;4.47;2.90;;;;;;;23.12;50.05;100979.34;4994333;28;20404;-59
2022/06/09 11:23:00;;;;;;;4.13;2.67;;;;;;;23.14;49.50;100987.25;4984036;28;20471;-59
2022/06/09 11:25:32;;;;;;;5.17;2.90;;;;;;;23.15;49.70;100989.00;5009408;28;20401;-59
2022/06/09 11:28:26;;;;;;;4.18;2.67;;;;;;;23.10;50.04;100990.75;4977164;28;20395;-59
2022/06/09 11:31:10;;;;;;;3.53;2.65;;;;;;;23.15;49.41;100999.53;4997294;28;20740;-60
2022/06/09 11:33:54;;;;;;;3.80;2.60;;;;;;;23.15;49.99;101004.78;5013087;28;20383;-59
2022/06/09 11:36:34;;;;;;;4.38;2.60;;;;;;;23.15;49.94;101007.41;4977589;28;20395;-60
2022/06/09 11:39:21;;;;;;;5.03;2.70;;;;;;;23.11;50.14;100997.75;5023407;28;20383;-59
2022/06/09 11:42:15;;;;;;;6.80;2.60;;;;;;;23.15;49.78;101010.88;5000054;28;20729;-58
2022/06/09 11:44:48;;;;;;;3.60;2.47;;;;;;;23.15;50.25;101015.28;5010125;28;20382;-59
2022/06/09 11:47:21;;;;;;;3.70;2.30;;;;;;;23.16;50.69;101017.03;4987754;28;20387;-59
2022/06/09 11:49:54;;;;;;;4.45;2.40;;;;;;;23.16;50.09;101023.16;5006278;28;20403;-63
2022/06/09 11:52:28;;;;;;;5.35;2.70;;;;;;;23.15;50.29;101025.78;5007627;28;20400;-58
2022/06/09 11:54:59;;;;;;;4.00;2.25;;;;;;;23.15;50.56;101025.78;5009849;28;20868;-59
2022/06/09 11:57:48;;;;;;;4.50;2.47;;;;;;;23.15;50.03;101031.91;5010378;28;20378;-58
2022/06/09 12:00:21;;;;;;;5.72;2.40;;;;;;;23.16;50.38;101022.28;4974232;28;20420;-60
2022/06/09 12:03:31;;;;;;;3.38;2.35;;;;;;;23.19;49.71;101027.56;4990521;28;20467;-62
2022/06/09 12:06:00;;;;;;;5.68;2.50;;;;;;;23.18;49.89;101031.06;4958455;28;20400;-64
2022/06/09 12:08:52;;;;;;;4.35;2.58;;;;;;;23.17;50.20;101029.31;5007349;28;20864;-58